АЭРОДРОМУУД

ICAO:
ZMCK
Нэр:
УЛААНБААТАР / Чингис Хаан
Ахц:
473849N 1064912E
No records found.
METAR
No records found.
TAF
TAF ZMCK 262241Z 2700/2806 VRB02MPS 1000 FG FEW030CB SCT033 TX26/2707Z TN11/2721Z TEMPO 2700/2702 0300 BECMG 2701/2703 9999 NSW=
- 3 hours ago -
TAF ZMCK 262241Z 2700/2806 VRB02MPS 1000 FG FEW030CB SCT033 TX26/2707Z TN11/2721Z TEMPO 2700/2702 0300 BECMG 2701/2703 9999 NSW=
- 3 hours ago -
TAF ZMCK 262145Z 2621/2706 03009MPS 6000 RA FEW020 FEW020CB BKN030 TEMPO 2621/2701 3000=
- 4 hours ago -
TAF ZMCK 262145Z 2621/2706 03009MPS 6000 RA FEW020 FEW020CB BKN030 TEMPO 2621/2701 3000=
- 4 hours ago -
TAF ZMCK 262018Z 2621/2706 VRB02MPS 0400 FG SCT100 BECMG 2622/2701 9999 NSW=
- 5 hours ago -
TAF ZMCK 262018Z 2621/2706 VRB02MPS 0400 FG SCT100 BECMG 2622/2701 9999 NSW=
- 5 hours ago -
TAF ZMCK 261652Z 2618/2703 VRB02MPS 9999 SCT033=
- 9 hours ago -
TAF ZMCK 261652Z 2618/2703 VRB02MPS 9999 SCT033=
- 9 hours ago -
TAF ZMCK 261634Z 2618/2724 VRB02MPS 9999 FEW030CB SCT033 TN09/2621Z TX26/2707Z=
- 9 hours ago -
TAF ZMCK 261634Z 2618/2724 VRB02MPS 9999 FEW030CB SCT033 TN09/2621Z TX26/2707Z=
- 9 hours ago -
TAF ZMCK 261039Z 2612/2718 VRB02MPS 9999 FEW030CB SCT033 TN09/2621Z TX26/2707Z=
- 15 hours ago -
TAF ZMCK 261039Z 2612/2718 VRB02MPS 9999 FEW030CB SCT033 TN09/2621Z TX26/2707Z=
- 15 hours ago -
TAF ZMCK 260437Z 2606/2712 VRB02MPS 9999 FEW030CB SCT033 TX20/2607Z TN09/2621Z TEMPO 2606/2614 VRB09MPS TSRA SCT027CB BKN030=
- 21 hours ago -
TAF ZMCK 260437Z 2606/2712 VRB02MPS 9999 FEW030CB SCT033 TX20/2607Z TN09/2621Z TEMPO 2606/2614 VRB09MPS TSRA SCT027CB BKN030=
- 21 hours ago -
TAF ZMCK 252240Z 2600/2706 VRB02MPS 9999 RA FEW023 FEW027CB BKN030 TX20/2607Z TN09/2621Z TEMPO 2602/2610 VRB09G14MPS TSRA SCT027CB BKN030 BECMG 2610/2612 NSW FEW030CB SCT033=
- 1 day ago -
TAF ZMCK 252240Z 2600/2706 VRB02MPS 9999 RA FEW023 FEW027CB BKN030 TX20/2607Z TN09/2621Z TEMPO 2602/2610 VRB09G14MPS TSRA SCT027CB BKN030 BECMG 2610/2612 NSW FEW030CB SCT033=
- 1 day ago -